sensor_id;sensor_type;location;lat;lon;timestamp;P1;durP1;ratioP1;P2;durP2;ratioP2
37559;SDS011;23398;50.928;7.084;2022-10-31T00:01:12;4.45;;;2.63;;
37559;SDS011;23398;50.928;7.084;2022-10-31T00:03:43;6.00;;;2.97;;
37559;SDS011;23398;50.928;7.084;2022-10-31T00:06:09;5.40;;;3.20;;
37559;SDS011;23398;50.928;7.084;2022-10-31T00:08:35;5.50;;;2.90;;
37559;SDS011;23398;50.928;7.084;2022-10-31T00:11:00;3.03;;;2.30;;
37559;SDS011;23398;50.928;7.084;2022-10-31T00:13:26;4.85;;;2.75;;
37559;SDS011;23398;50.928;7.084;2022-10-31T00:15:51;5.15;;;3.17;;
37559;SDS011;23398;50.928;7.084;2022-10-31T00:18:17;5.32;;;3.10;;
37559;SDS011;23398;50.928;7.084;2022-10-31T00:20:43;4.78;;;3.10;;
37559;SDS011;23398;50.928;7.084;2022-10-31T00:23:08;6.28;;;3.00;;
37559;SDS011;23398;50.928;7.084;2022-10-31T00:25:35;4.32;;;2.88;;
37559;SDS011;23398;50.928;7.084;2022-10-31T00:28:03;6.75;;;3.42;;
37559;SDS011;23398;50.928;7.084;2022-10-31T00:30:29;4.78;;;2.92;;
37559;SDS011;23398;50.928;7.084;2022-10-31T00:32:55;11.10;;;3.30;;
37559;SDS011;23398;50.928;7.084;2022-10-31T00:35:20;5.43;;;3.28;;
37559;SDS011;23398;50.928;7.084;2022-10-31T00:37:46;5.72;;;3.30;;
37559;SDS011;23398;50.928;7.084;2022-10-31T00:40:11;6.90;;;3.17;;
37559;SDS011;23398;50.928;7.084;2022-10-31T00:42:38;6.07;;;3.03;;
37559;SDS011;23398;50.928;7.084;2022-10-31T00:45:04;4.97;;;3.13;;
37559;SDS011;23398;50.928;7.084;2022-10-31T00:47:30;5.57;;;3.33;;
37559;SDS011;23398;50.928;7.084;2022-10-31T00:49:56;5.70;;;3.00;;
37559;SDS011;23398;50.928;7.084;2022-10-31T00:52:21;19.73;;;6.53;;
37559;SDS011;23398;50.928;7.084;2022-10-31T00:54:47;8.05;;;4.53;;
37559;SDS011;23398;50.928;7.084;2022-10-31T00:57:12;6.95;;;3.40;;
37559;SDS011;23398;50.928;7.084;2022-10-31T00:59:38;9.35;;;4.10;;
37559;SDS011;23398;50.928;7.084;2022-10-31T01:02:03;10.88;;;3.75;;
37559;SDS011;23398;50.928;7.084;2022-10-31T01:04:29;6.05;;;3.40;;
37559;SDS011;23398;50.928;7.084;2022-10-31T01:06:54;6.70;;;3.90;;
37559;SDS011;23398;50.928;7.084;2022-10-31T01:09:20;4.72;;;3.28;;
37559;SDS011;23398;50.928;7.084;2022-10-31T01:11:45;8.20;;;3.55;;
37559;SDS011;23398;50.928;7.084;2022-10-31T01:14:11;5.45;;;3.10;;
37559;SDS011;23398;50.928;7.084;2022-10-31T01:16:36;6.32;;;3.10;;
37559;SDS011;23398;50.928;7.084;2022-10-31T01:19:02;5.80;;;3.38;;
37559;SDS011;23398;50.928;7.084;2022-10-31T01:21:28;7.00;;;3.28;;
37559;SDS011;23398;50.928;7.084;2022-10-31T01:23:54;11.40;;;4.72;;
37559;SDS011;23398;50.928;7.084;2022-10-31T01:26:21;5.90;;;3.38;;
37559;SDS011;23398;50.928;7.084;2022-10-31T01:28:50;6.88;;;3.75;;
37559;SDS011;23398;50.928;7.084;2022-10-31T01:31:21;8.93;;;4.13;;
37559;SDS011;23398;50.928;7.084;2022-10-31T01:33:49;5.97;;;3.30;;
37559;SDS011;23398;50.928;7.084;2022-10-31T01:36:20;7.45;;;3.70;;
37559;SDS011;23398;50.928;7.084;2022-10-31T01:38:47;5.43;;;3.80;;
37559;SDS011;23398;50.928;7.084;2022-10-31T01:41:15;7.20;;;3.38;;
37559;SDS011;23398;50.928;7.084;2022-10-31T01:46:33;5.70;;;3.22;;
37559;SDS011;23398;50.928;7.084;2022-10-31T01:49:02;4.68;;;3.08;;
37559;SDS011;23398;50.928;7.084;2022-10-31T01:51:34;7.50;;;3.50;;
37559;SDS011;23398;50.928;7.084;2022-10-31T01:54:08;4.63;;;3.20;;
37559;SDS011;23398;50.928;7.084;2022-10-31T01:56:40;5.78;;;3.28;;
37559;SDS011;23398;50.928;7.084;2022-10-31T01:59:09;4.65;;;3.10;;
37559;SDS011;23398;50.928;7.084;2022-10-31T02:01:38;4.38;;;2.85;;
37559;SDS011;23398;50.928;7.084;2022-10-31T02:04:05;5.25;;;2.83;;
37559;SDS011;23398;50.928;7.084;2022-10-31T02:06:36;5.22;;;3.20;;
37559;SDS011;23398;50.928;7.084;2022-10-31T02:09:15;6.55;;;2.95;;
37559;SDS011;23398;50.928;7.084;2022-10-31T02:11:48;5.28;;;2.95;;
37559;SDS011;23398;50.928;7.084;2022-10-31T02:14:16;4.40;;;3.08;;
37559;SDS011;23398;50.928;7.084;2022-10-31T02:16:41;7.75;;;3.40;;
37559;SDS011;23398;50.928;7.084;2022-10-31T02:19:07;10.25;;;3.42;;
37559;SDS011;23398;50.928;7.084;2022-10-31T02:21:38;4.18;;;3.03;;
37559;SDS011;23398;50.928;7.084;2022-10-31T02:35:10;5.68;;;3.53;;
37559;SDS011;23398;50.928;7.084;2022-10-31T02:37:38;5.18;;;3.13;;
37559;SDS011;23398;50.928;7.084;2022-10-31T02:42:42;4.85;;;3.05;;
37559;SDS011;23398;50.928;7.084;2022-10-31T02:45:14;5.93;;;3.10;;
37559;SDS011;23398;50.928;7.084;2022-10-31T02:48:08;3.28;;;2.65;;
37559;SDS011;23398;50.928;7.084;2022-10-31T02:50:39;4.20;;;2.72;;
37559;SDS011;23398;50.928;7.084;2022-10-31T02:53:09;4.63;;;2.65;;
37559;SDS011;23398;50.928;7.084;2022-10-31T02:58:10;7.90;;;3.05;;
37559;SDS011;23398;50.928;7.084;2022-10-31T03:00:49;4.28;;;2.65;;
37559;SDS011;23398;50.928;7.084;2022-10-31T03:11:31;5.63;;;2.92;;
37559;SDS011;23398;50.928;7.084;2022-10-31T03:14:06;7.95;;;3.40;;
37559;SDS011;23398;50.928;7.084;2022-10-31T03:16:45;5.20;;;3.25;;
37559;SDS011;23398;50.928;7.084;2022-10-31T03:19:20;4.07;;;2.97;;
37559;SDS011;23398;50.928;7.084;2022-10-31T03:21:58;3.85;;;2.97;;
37559;SDS011;23398;50.928;7.084;2022-10-31T03:24:45;5.22;;;2.83;;
37559;SDS011;23398;50.928;7.084;2022-10-31T03:27:14;6.63;;;3.35;;
37559;SDS011;23398;50.928;7.084;2022-10-31T03:29:43;5.00;;;2.92;;
37559;SDS011;23398;50.928;7.084;2022-10-31T03:32:12;7.30;;;3.10;;
37559;SDS011;23398;50.928;7.084;2022-10-31T03:34:43;6.15;;;2.90;;
37559;SDS011;23398;50.928;7.084;2022-10-31T03:37:10;4.80;;;3.45;;
37559;SDS011;23398;50.928;7.084;2022-10-31T03:39:38;6.10;;;3.38;;
37559;SDS011;23398;50.928;7.084;2022-10-31T03:42:15;4.35;;;3.13;;
37559;SDS011;23398;50.928;7.084;2022-10-31T03:45:06;6.30;;;3.50;;
37559;SDS011;23398;50.928;7.084;2022-10-31T03:47:59;4.25;;;2.95;;
37559;SDS011;23398;50.928;7.084;2022-10-31T03:50:26;5.28;;;3.08;;
37559;SDS011;23398;50.928;7.084;2022-10-31T03:55:45;5.28;;;2.85;;
37559;SDS011;23398;50.928;7.084;2022-10-31T03:58:20;5.05;;;3.10;;
37559;SDS011;23398;50.928;7.084;2022-10-31T04:00:51;4.75;;;3.20;;
37559;SDS011;23398;50.928;7.084;2022-10-31T04:03:21;8.60;;;3.15;;
37559;SDS011;23398;50.928;7.084;2022-10-31T04:05:55;5.78;;;2.95;;
37559;SDS011;23398;50.928;7.084;2022-10-31T04:08:26;4.47;;;3.05;;
37559;SDS011;23398;50.928;7.084;2022-10-31T04:10:54;5.85;;;2.92;;
37559;SDS011;23398;50.928;7.084;2022-10-31T04:13:24;4.57;;;3.03;;
37559;SDS011;23398;50.928;7.084;2022-10-31T04:15:54;4.63;;;2.67;;
37559;SDS011;23398;50.928;7.084;2022-10-31T04:18:22;7.05;;;2.78;;
37559;SDS011;23398;50.928;7.084;2022-10-31T04:20:48;7.97;;;2.30;;
37559;SDS011;23398;50.928;7.084;2022-10-31T04:23:24;6.95;;;2.85;;
37559;SDS011;23398;50.928;7.084;2022-10-31T04:25:51;5.18;;;2.83;;
37559;SDS011;23398;50.928;7.084;2022-10-31T04:28:16;4.68;;;3.00;;
37559;SDS011;23398;50.928;7.084;2022-10-31T04:30:42;4.43;;;3.20;;
37559;SDS011;23398;50.928;7.084;2022-10-31T04:33:08;5.35;;;3.10;;
37559;SDS011;23398;50.928;7.084;2022-10-31T04:35:33;9.23;;;3.55;;
37559;SDS011;23398;50.928;7.084;2022-10-31T04:37:59;6.53;;;3.17;;
37559;SDS011;23398;50.928;7.084;2022-10-31T04:40:24;7.78;;;3.00;;
37559;SDS011;23398;50.928;7.084;2022-10-31T04:42:50;4.15;;;2.72;;
37559;SDS011;23398;50.928;7.084;2022-10-31T04:45:15;4.35;;;3.13;;
37559;SDS011;23398;50.928;7.084;2022-10-31T04:47:41;7.22;;;3.28;;
37559;SDS011;23398;50.928;7.084;2022-10-31T04:50:07;9.52;;;3.22;;
37559;SDS011;23398;50.928;7.084;2022-10-31T04:52:38;5.82;;;3.53;;
37559;SDS011;23398;50.928;7.084;2022-10-31T04:55:04;6.75;;;3.08;;
37559;SDS011;23398;50.928;7.084;2022-10-31T04:57:30;6.53;;;2.80;;
37559;SDS011;23398;50.928;7.084;2022-10-31T04:59:56;3.88;;;2.65;;
37559;SDS011;23398;50.928;7.084;2022-10-31T05:02:21;9.15;;;4.72;;
37559;SDS011;23398;50.928;7.084;2022-10-31T05:04:47;5.60;;;3.85;;
37559;SDS011;23398;50.928;7.084;2022-10-31T05:07:12;6.85;;;4.30;;
37559;SDS011;23398;50.928;7.084;2022-10-31T05:09:38;8.43;;;5.13;;
37559;SDS011;23398;50.928;7.084;2022-10-31T05:12:04;7.80;;;4.65;;
37559;SDS011;23398;50.928;7.084;2022-10-31T05:14:29;7.88;;;4.28;;
37559;SDS011;23398;50.928;7.084;2022-10-31T05:16:55;5.82;;;4.00;;
37559;SDS011;23398;50.928;7.084;2022-10-31T05:19:20;6.32;;;3.30;;
37559;SDS011;23398;50.928;7.084;2022-10-31T05:21:46;5.40;;;2.90;;
37559;SDS011;23398;50.928;7.084;2022-10-31T05:24:11;5.65;;;3.25;;
37559;SDS011;23398;50.928;7.084;2022-10-31T05:26:37;6.25;;;2.80;;
37559;SDS011;23398;50.928;7.084;2022-10-31T05:29:02;5.70;;;3.03;;
37559;SDS011;23398;50.928;7.084;2022-10-31T05:31:28;12.23;;;5.25;;
37559;SDS011;23398;50.928;7.084;2022-10-31T05:33:54;6.47;;;3.58;;
37559;SDS011;23398;50.928;7.084;2022-10-31T05:36:19;4.20;;;3.15;;
37559;SDS011;23398;50.928;7.084;2022-10-31T05:38:45;6.15;;;2.78;;
37559;SDS011;23398;50.928;7.084;2022-10-31T05:41:10;6.45;;;3.15;;
37559;SDS011;23398;50.928;7.084;2022-10-31T05:43:36;3.42;;;2.47;;
37559;SDS011;23398;50.928;7.084;2022-10-31T05:46:02;4.32;;;2.65;;
37559;SDS011;23398;50.928;7.084;2022-10-31T05:48:27;6.72;;;3.35;;
37559;SDS011;23398;50.928;7.084;2022-10-31T05:50:53;9.85;;;3.45;;
37559;SDS011;23398;50.928;7.084;2022-10-31T05:53:18;4.45;;;3.08;;
37559;SDS011;23398;50.928;7.084;2022-10-31T05:55:44;5.68;;;3.20;;
37559;SDS011;23398;50.928;7.084;2022-10-31T05:58:10;3.42;;;2.70;;
37559;SDS011;23398;50.928;7.084;2022-10-31T06:00:36;4.45;;;2.78;;
37559;SDS011;23398;50.928;7.084;2022-10-31T06:03:05;3.50;;;2.72;;
37559;SDS011;23398;50.928;7.084;2022-10-31T06:05:32;7.63;;;3.25;;
37559;SDS011;23398;50.928;7.084;2022-10-31T06:07:58;4.38;;;3.17;;
37559;SDS011;23398;50.928;7.084;2022-10-31T06:10:23;5.78;;;3.40;;
37559;SDS011;23398;50.928;7.084;2022-10-31T06:12:49;4.72;;;3.53;;
37559;SDS011;23398;50.928;7.084;2022-10-31T06:15:15;4.43;;;3.25;;
37559;SDS011;23398;50.928;7.084;2022-10-31T06:17:41;5.28;;;3.33;;
37559;SDS011;23398;50.928;7.084;2022-10-31T06:20:07;7.55;;;2.97;;
37559;SDS011;23398;50.928;7.084;2022-10-31T06:22:33;7.18;;;3.05;;
37559;SDS011;23398;50.928;7.084;2022-10-31T06:24:58;5.70;;;3.47;;
37559;SDS011;23398;50.928;7.084;2022-10-31T06:27:24;7.57;;;3.30;;
37559;SDS011;23398;50.928;7.084;2022-10-31T06:29:50;4.93;;;3.20;;
37559;SDS011;23398;50.928;7.084;2022-10-31T06:32:16;5.10;;;3.00;;
37559;SDS011;23398;50.928;7.084;2022-10-31T06:34:42;8.80;;;3.35;;
37559;SDS011;23398;50.928;7.084;2022-10-31T06:37:09;5.22;;;3.45;;
37559;SDS011;23398;50.928;7.084;2022-10-31T06:39:36;3.30;;;2.70;;
37559;SDS011;23398;50.928;7.084;2022-10-31T06:42:02;6.85;;;3.00;;
37559;SDS011;23398;50.928;7.084;2022-10-31T06:44:28;6.10;;;3.17;;
37559;SDS011;23398;50.928;7.084;2022-10-31T06:46:54;5.28;;;2.72;;
37559;SDS011;23398;50.928;7.084;2022-10-31T06:49:20;3.80;;;2.95;;
37559;SDS011;23398;50.928;7.084;2022-10-31T06:51:49;3.83;;;2.67;;
37559;SDS011;23398;50.928;7.084;2022-10-31T06:54:15;8.05;;;3.58;;
37559;SDS011;23398;50.928;7.084;2022-10-31T06:56:40;4.97;;;3.63;;
37559;SDS011;23398;50.928;7.084;2022-10-31T06:59:06;7.03;;;3.38;;
37559;SDS011;23398;50.928;7.084;2022-10-31T07:01:32;6.63;;;3.15;;
37559;SDS011;23398;50.928;7.084;2022-10-31T07:03:57;4.32;;;3.25;;
37559;SDS011;23398;50.928;7.084;2022-10-31T07:06:23;6.18;;;3.58;;
37559;SDS011;23398;50.928;7.084;2022-10-31T07:08:48;4.07;;;3.20;;
37559;SDS011;23398;50.928;7.084;2022-10-31T07:11:14;5.15;;;3.10;;
37559;SDS011;23398;50.928;7.084;2022-10-31T07:13:39;4.35;;;2.92;;
37559;SDS011;23398;50.928;7.084;2022-10-31T07:16:05;6.97;;;3.58;;
37559;SDS011;23398;50.928;7.084;2022-10-31T07:18:31;6.18;;;3.65;;
37559;SDS011;23398;50.928;7.084;2022-10-31T07:20:57;7.63;;;3.58;;
37559;SDS011;23398;50.928;7.084;2022-10-31T07:23:22;4.20;;;3.35;;
37559;SDS011;23398;50.928;7.084;2022-10-31T07:25:48;7.88;;;3.65;;
37559;SDS011;23398;50.928;7.084;2022-10-31T07:28:19;5.93;;;3.45;;
37559;SDS011;23398;50.928;7.084;2022-10-31T07:30:48;5.07;;;3.38;;
37559;SDS011;23398;50.928;7.084;2022-10-31T07:33:16;5.70;;;3.30;;
37559;SDS011;23398;50.928;7.084;2022-10-31T07:35:41;7.00;;;3.75;;
37559;SDS011;23398;50.928;7.084;2022-10-31T07:38:07;4.60;;;3.25;;
37559;SDS011;23398;50.928;7.084;2022-10-31T07:40:34;6.22;;;3.53;;
37559;SDS011;23398;50.928;7.084;2022-10-31T07:43:00;5.32;;;3.95;;
37559;SDS011;23398;50.928;7.084;2022-10-31T07:45:25;9.88;;;4.28;;
37559;SDS011;23398;50.928;7.084;2022-10-31T07:47:51;8.48;;;4.90;;
37559;SDS011;23398;50.928;7.084;2022-10-31T07:50:22;7.82;;;5.57;;
37559;SDS011;23398;50.928;7.084;2022-10-31T07:52:57;8.50;;;4.93;;
37559;SDS011;23398;50.928;7.084;2022-10-31T07:55:23;6.55;;;3.70;;
37559;SDS011;23398;50.928;7.084;2022-10-31T07:57:56;5.50;;;3.55;;
37559;SDS011;23398;50.928;7.084;2022-10-31T08:00:26;5.10;;;3.33;;
37559;SDS011;23398;50.928;7.084;2022-10-31T08:02:58;7.18;;;4.20;;
37559;SDS011;23398;50.928;7.084;2022-10-31T08:05:25;8.25;;;3.75;;
37559;SDS011;23398;50.928;7.084;2022-10-31T08:07:50;7.78;;;4.72;;
37559;SDS011;23398;50.928;7.084;2022-10-31T08:10:16;5.55;;;4.38;;
37559;SDS011;23398;50.928;7.084;2022-10-31T08:12:42;7.45;;;4.53;;
37559;SDS011;23398;50.928;7.084;2022-10-31T08:15:07;5.22;;;4.40;;
37559;SDS011;23398;50.928;7.084;2022-10-31T08:17:36;5.93;;;4.20;;
37559;SDS011;23398;50.928;7.084;2022-10-31T08:20:05;7.30;;;4.53;;
37559;SDS011;23398;50.928;7.084;2022-10-31T08:22:31;7.70;;;4.75;;
37559;SDS011;23398;50.928;7.084;2022-10-31T08:24:57;6.82;;;4.47;;
37559;SDS011;23398;50.928;7.084;2022-10-31T08:27:22;5.38;;;4.28;;
37559;SDS011;23398;50.928;7.084;2022-10-31T08:29:48;7.10;;;4.60;;
37559;SDS011;23398;50.928;7.084;2022-10-31T08:32:13;6.45;;;4.13;;
37559;SDS011;23398;50.928;7.084;2022-10-31T08:34:39;5.82;;;4.18;;
37559;SDS011;23398;50.928;7.084;2022-10-31T08:37:04;7.63;;;4.45;;
37559;SDS011;23398;50.928;7.084;2022-10-31T08:39:30;6.57;;;4.47;;
37559;SDS011;23398;50.928;7.084;2022-10-31T08:41:55;7.70;;;4.57;;
37559;SDS011;23398;50.928;7.084;2022-10-31T08:44:21;7.57;;;4.63;;
37559;SDS011;23398;50.928;7.084;2022-10-31T08:46:47;5.80;;;4.25;;
37559;SDS011;23398;50.928;7.084;2022-10-31T08:49:12;5.78;;;4.43;;
37559;SDS011;23398;50.928;7.084;2022-10-31T08:51:38;7.68;;;4.30;;
37559;SDS011;23398;50.928;7.084;2022-10-31T08:54:03;6.60;;;4.30;;
37559;SDS011;23398;50.928;7.084;2022-10-31T08:56:29;6.90;;;4.25;;
37559;SDS011;23398;50.928;7.084;2022-10-31T08:58:54;6.78;;;4.47;;
37559;SDS011;23398;50.928;7.084;2022-10-31T09:01:20;8.77;;;4.20;;
37559;SDS011;23398;50.928;7.084;2022-10-31T09:03:45;9.02;;;3.90;;
37559;SDS011;23398;50.928;7.084;2022-10-31T09:06:11;8.23;;;4.60;;
37559;SDS011;23398;50.928;7.084;2022-10-31T09:08:37;8.05;;;4.43;;
37559;SDS011;23398;50.928;7.084;2022-10-31T09:11:02;7.30;;;4.85;;
37559;SDS011;23398;50.928;7.084;2022-10-31T09:13:29;7.55;;;4.60;;
37559;SDS011;23398;50.928;7.084;2022-10-31T09:15:55;6.60;;;4.68;;
37559;SDS011;23398;50.928;7.084;2022-10-31T09:18:21;8.23;;;4.03;;
37559;SDS011;23398;50.928;7.084;2022-10-31T09:20:48;8.07;;;4.38;;
37559;SDS011;23398;50.928;7.084;2022-10-31T09:23:15;8.20;;;4.80;;
37559;SDS011;23398;50.928;7.084;2022-10-31T09:25:46;7.82;;;4.43;;
37559;SDS011;23398;50.928;7.084;2022-10-31T09:28:13;6.57;;;4.10;;
37559;SDS011;23398;50.928;7.084;2022-10-31T09:30:40;5.20;;;4.00;;
37559;SDS011;23398;50.928;7.084;2022-10-31T09:33:08;6.95;;;4.00;;
37559;SDS011;23398;50.928;7.084;2022-10-31T09:35:35;6.55;;;3.83;;
37559;SDS011;23398;50.928;7.084;2022-10-31T09:38:11;6.07;;;4.03;;
37559;SDS011;23398;50.928;7.084;2022-10-31T09:40:42;8.73;;;4.18;;
37559;SDS011;23398;50.928;7.084;2022-10-31T09:46:01;4.93;;;3.95;;
37559;SDS011;23398;50.928;7.084;2022-10-31T09:48:46;8.40;;;4.10;;
37559;SDS011;23398;50.928;7.084;2022-10-31T09:51:33;5.22;;;4.03;;
37559;SDS011;23398;50.928;7.084;2022-10-31T09:56:55;5.35;;;4.20;;
37559;SDS011;23398;50.928;7.084;2022-10-31T09:59:32;7.55;;;3.60;;
37559;SDS011;23398;50.928;7.084;2022-10-31T10:02:09;9.18;;;4.32;;
37559;SDS011;23398;50.928;7.084;2022-10-31T10:05:18;6.05;;;3.70;;
37559;SDS011;23398;50.928;7.084;2022-10-31T10:30:16;6.95;;;4.53;;
37559;SDS011;23398;50.928;7.084;2022-10-31T10:33:02;6.10;;;4.32;;
37559;SDS011;23398;50.928;7.084;2022-10-31T10:35:34;5.47;;;4.03;;
37559;SDS011;23398;50.928;7.084;2022-10-31T10:38:09;8.27;;;4.70;;
37559;SDS011;23398;50.928;7.084;2022-10-31T10:40:55;6.40;;;4.10;;
37559;SDS011;23398;50.928;7.084;2022-10-31T10:43:29;6.10;;;3.88;;
37559;SDS011;23398;50.928;7.084;2022-10-31T10:51:50;8.18;;;4.28;;
37559;SDS011;23398;50.928;7.084;2022-10-31T11:00:26;6.55;;;4.03;;
37559;SDS011;23398;50.928;7.084;2022-10-31T11:03:13;6.72;;;3.97;;
37559;SDS011;23398;50.928;7.084;2022-10-31T11:05:44;6.93;;;3.67;;
37559;SDS011;23398;50.928;7.084;2022-10-31T11:08:23;6.68;;;4.03;;
37559;SDS011;23398;50.928;7.084;2022-10-31T11:10:58;7.07;;;3.80;;
37559;SDS011;23398;50.928;7.084;2022-10-31T11:13:25;6.07;;;4.10;;
37559;SDS011;23398;50.928;7.084;2022-10-31T11:18:22;8.93;;;4.07;;
37559;SDS011;23398;50.928;7.084;2022-10-31T11:20:51;6.35;;;4.10;;
37559;SDS011;23398;50.928;7.084;2022-10-31T11:23:20;7.00;;;3.85;;
37559;SDS011;23398;50.928;7.084;2022-10-31T11:28:16;5.50;;;4.13;;
37559;SDS011;23398;50.928;7.084;2022-10-31T11:30:50;5.57;;;3.63;;
37559;SDS011;23398;50.928;7.084;2022-10-31T11:35:53;8.30;;;3.97;;
37559;SDS011;23398;50.928;7.084;2022-10-31T11:38:20;4.63;;;3.55;;
37559;SDS011;23398;50.928;7.084;2022-10-31T11:41:09;5.55;;;4.00;;
37559;SDS011;23398;50.928;7.084;2022-10-31T11:44:02;6.63;;;3.90;;
37559;SDS011;23398;50.928;7.084;2022-10-31T11:46:37;7.25;;;4.00;;
37559;SDS011;23398;50.928;7.084;2022-10-31T11:49:16;5.00;;;3.35;;
37559;SDS011;23398;50.928;7.084;2022-10-31T11:51:51;7.75;;;4.30;;
37559;SDS011;23398;50.928;7.084;2022-10-31T11:54:20;6.35;;;3.80;;
37559;SDS011;23398;50.928;7.084;2022-10-31T11:56:51;6.32;;;3.92;;
37559;SDS011;23398;50.928;7.084;2022-10-31T11:59:24;6.13;;;3.63;;
37559;SDS011;23398;50.928;7.084;2022-10-31T12:01:56;6.90;;;3.42;;
37559;SDS011;23398;50.928;7.084;2022-10-31T12:04:43;6.63;;;4.00;;
37559;SDS011;23398;50.928;7.084;2022-10-31T12:07:12;6.57;;;3.65;;
37559;SDS011;23398;50.928;7.084;2022-10-31T12:09:38;9.27;;;3.55;;
37559;SDS011;23398;50.928;7.084;2022-10-31T12:15:31;5.07;;;3.55;;
37559;SDS011;23398;50.928;7.084;2022-10-31T12:18:09;9.23;;;3.90;;
37559;SDS011;23398;50.928;7.084;2022-10-31T12:25:55;6.93;;;3.38;;
37559;SDS011;23398;50.928;7.084;2022-10-31T12:31:19;7.72;;;3.67;;
37559;SDS011;23398;50.928;7.084;2022-10-31T12:58:38;6.95;;;3.20;;
37559;SDS011;23398;50.928;7.084;2022-10-31T13:01:12;4.78;;;3.00;;
37559;SDS011;23398;50.928;7.084;2022-10-31T13:04:28;9.13;;;3.75;;
37559;SDS011;23398;50.928;7.084;2022-10-31T13:06:57;5.70;;;3.00;;
37559;SDS011;23398;50.928;7.084;2022-10-31T13:09:31;6.57;;;3.28;;
37559;SDS011;23398;50.928;7.084;2022-10-31T13:12:14;6.30;;;3.15;;
37559;SDS011;23398;50.928;7.084;2022-10-31T13:14:50;4.82;;;2.83;;
37559;SDS011;23398;50.928;7.084;2022-10-31T13:17:24;6.10;;;3.13;;
37559;SDS011;23398;50.928;7.084;2022-10-31T13:19:51;5.63;;;3.30;;
37559;SDS011;23398;50.928;7.084;2022-10-31T13:22:27;6.35;;;2.92;;
37559;SDS011;23398;50.928;7.084;2022-10-31T13:30:48;5.25;;;2.92;;
37559;SDS011;23398;50.928;7.084;2022-10-31T13:33:29;5.90;;;3.13;;
37559;SDS011;23398;50.928;7.084;2022-10-31T13:41:20;8.80;;;3.22;;
37559;SDS011;23398;50.928;7.084;2022-10-31T13:46:51;5.60;;;3.17;;
37559;SDS011;23398;50.928;7.084;2022-10-31T13:54:46;6.80;;;2.90;;
37559;SDS011;23398;50.928;7.084;2022-10-31T13:59:52;6.60;;;2.80;;
37559;SDS011;23398;50.928;7.084;2022-10-31T14:02:43;5.22;;;2.60;;
37559;SDS011;23398;50.928;7.084;2022-10-31T14:05:22;6.13;;;3.17;;
37559;SDS011;23398;50.928;7.084;2022-10-31T14:07:54;7.40;;;3.03;;
37559;SDS011;23398;50.928;7.084;2022-10-31T14:10:28;5.63;;;2.95;;
37559;SDS011;23398;50.928;7.084;2022-10-31T14:13:18;9.05;;;3.05;;
37559;SDS011;23398;50.928;7.084;2022-10-31T14:15:55;6.82;;;2.80;;
37559;SDS011;23398;50.928;7.084;2022-10-31T14:18:45;4.95;;;2.72;;
37559;SDS011;23398;50.928;7.084;2022-10-31T14:23:50;5.40;;;2.90;;
37559;SDS011;23398;50.928;7.084;2022-10-31T14:28:50;5.53;;;2.78;;
37559;SDS011;23398;50.928;7.084;2022-10-31T14:34:05;9.48;;;2.95;;
37559;SDS011;23398;50.928;7.084;2022-10-31T14:48:26;5.68;;;2.92;;
37559;SDS011;23398;50.928;7.084;2022-10-31T14:50:58;6.18;;;2.60;;
37559;SDS011;23398;50.928;7.084;2022-10-31T14:53:35;4.80;;;2.42;;
37559;SDS011;23398;50.928;7.084;2022-10-31T14:56:10;5.05;;;2.50;;
37559;SDS011;23398;50.928;7.084;2022-10-31T14:58:38;5.28;;;2.47;;
37559;SDS011;23398;50.928;7.084;2022-10-31T15:01:07;4.35;;;2.80;;
37559;SDS011;23398;50.928;7.084;2022-10-31T15:03:44;4.50;;;2.40;;
37559;SDS011;23398;50.928;7.084;2022-10-31T15:06:12;4.38;;;2.38;;
37559;SDS011;23398;50.928;7.084;2022-10-31T15:08:40;6.53;;;2.70;;
37559;SDS011;23398;50.928;7.084;2022-10-31T15:11:11;7.55;;;2.90;;
37559;SDS011;23398;50.928;7.084;2022-10-31T15:13:44;5.50;;;2.88;;
37559;SDS011;23398;50.928;7.084;2022-10-31T15:16:16;7.03;;;2.85;;
37559;SDS011;23398;50.928;7.084;2022-10-31T15:19:05;6.78;;;2.50;;
37559;SDS011;23398;50.928;7.084;2022-10-31T15:21:35;5.50;;;2.83;;
37559;SDS011;23398;50.928;7.084;2022-10-31T15:24:05;7.78;;;2.92;;
37559;SDS011;23398;50.928;7.084;2022-10-31T15:26:32;7.75;;;2.70;;
37559;SDS011;23398;50.928;7.084;2022-10-31T15:29:03;4.30;;;2.40;;
37559;SDS011;23398;50.928;7.084;2022-10-31T15:31:30;5.32;;;2.42;;
37559;SDS011;23398;50.928;7.084;2022-10-31T15:33:59;5.25;;;2.50;;
37559;SDS011;23398;50.928;7.084;2022-10-31T15:36:47;5.07;;;2.60;;
37559;SDS011;23398;50.928;7.084;2022-10-31T15:39:15;5.60;;;2.40;;
37559;SDS011;23398;50.928;7.084;2022-10-31T15:44:15;6.78;;;2.80;;
37559;SDS011;23398;50.928;7.084;2022-10-31T15:46:50;8.10;;;2.80;;
37559;SDS011;23398;50.928;7.084;2022-10-31T15:49:52;5.38;;;2.40;;
37559;SDS011;23398;50.928;7.084;2022-10-31T15:55:15;6.50;;;2.60;;
37559;SDS011;23398;50.928;7.084;2022-10-31T15:57:45;4.70;;;2.33;;
37559;SDS011;23398;50.928;7.084;2022-10-31T16:02:48;4.60;;;2.45;;
37559;SDS011;23398;50.928;7.084;2022-10-31T16:05:15;5.72;;;2.80;;
37559;SDS011;23398;50.928;7.084;2022-10-31T16:07:49;6.07;;;2.65;;
37559;SDS011;23398;50.928;7.084;2022-10-31T16:10:23;5.88;;;2.42;;
37559;SDS011;23398;50.928;7.084;2022-10-31T16:12:50;6.55;;;2.50;;
37559;SDS011;23398;50.928;7.084;2022-10-31T16:15:17;5.60;;;2.42;;
37559;SDS011;23398;50.928;7.084;2022-10-31T16:17:45;4.78;;;2.45;;
37559;SDS011;23398;50.928;7.084;2022-10-31T16:20:27;4.45;;;2.35;;
37559;SDS011;23398;50.928;7.084;2022-10-31T16:22:56;8.40;;;2.60;;
37559;SDS011;23398;50.928;7.084;2022-10-31T16:28:02;5.38;;;2.63;;
37559;SDS011;23398;50.928;7.084;2022-10-31T16:33:04;8.70;;;2.70;;
37559;SDS011;23398;50.928;7.084;2022-10-31T16:35:44;3.28;;;2.22;;
37559;SDS011;23398;50.928;7.084;2022-10-31T16:38:10;8.65;;;3.03;;
37559;SDS011;23398;50.928;7.084;2022-10-31T16:40:37;7.35;;;2.45;;
37559;SDS011;23398;50.928;7.084;2022-10-31T16:43:03;6.15;;;2.70;;
37559;SDS011;23398;50.928;7.084;2022-10-31T16:45:30;5.50;;;2.72;;
37559;SDS011;23398;50.928;7.084;2022-10-31T16:48:06;5.30;;;2.60;;
37559;SDS011;23398;50.928;7.084;2022-10-31T16:50:36;5.28;;;2.67;;
37559;SDS011;23398;50.928;7.084;2022-10-31T16:53:02;6.50;;;3.03;;
37559;SDS011;23398;50.928;7.084;2022-10-31T16:55:28;3.85;;;2.63;;
37559;SDS011;23398;50.928;7.084;2022-10-31T16:57:54;6.93;;;2.67;;
37559;SDS011;23398;50.928;7.084;2022-10-31T17:00:22;6.45;;;2.80;;
37559;SDS011;23398;50.928;7.084;2022-10-31T17:02:52;5.15;;;2.40;;
37559;SDS011;23398;50.928;7.084;2022-10-31T17:05:21;5.40;;;2.60;;
37559;SDS011;23398;50.928;7.084;2022-10-31T17:07:53;4.95;;;2.58;;
37559;SDS011;23398;50.928;7.084;2022-10-31T17:10:22;5.88;;;2.70;;
37559;SDS011;23398;50.928;7.084;2022-10-31T17:12:48;6.40;;;2.72;;
37559;SDS011;23398;50.928;7.084;2022-10-31T17:15:21;5.28;;;2.97;;
37559;SDS011;23398;50.928;7.084;2022-10-31T17:17:49;6.85;;;2.53;;
37559;SDS011;23398;50.928;7.084;2022-10-31T17:20:19;7.25;;;2.60;;
37559;SDS011;23398;50.928;7.084;2022-10-31T17:22:50;6.45;;;2.85;;
37559;SDS011;23398;50.928;7.084;2022-10-31T17:25:16;4.55;;;2.35;;
37559;SDS011;23398;50.928;7.084;2022-10-31T17:27:49;6.57;;;2.80;;
37559;SDS011;23398;50.928;7.084;2022-10-31T17:30:15;5.72;;;3.20;;
37559;SDS011;23398;50.928;7.084;2022-10-31T17:32:43;5.55;;;2.85;;
37559;SDS011;23398;50.928;7.084;2022-10-31T17:35:10;6.30;;;3.20;;
37559;SDS011;23398;50.928;7.084;2022-10-31T17:37:37;5.35;;;2.70;;
37559;SDS011;23398;50.928;7.084;2022-10-31T17:40:03;6.05;;;2.70;;
37559;SDS011;23398;50.928;7.084;2022-10-31T17:42:29;8.05;;;2.90;;
37559;SDS011;23398;50.928;7.084;2022-10-31T17:44:55;7.20;;;2.63;;
37559;SDS011;23398;50.928;7.084;2022-10-31T17:47:20;6.25;;;3.00;;
37559;SDS011;23398;50.928;7.084;2022-10-31T17:49:46;5.15;;;2.67;;
37559;SDS011;23398;50.928;7.084;2022-10-31T17:52:12;6.13;;;2.72;;